sensor_id;sensor_type;location;lat;lon;timestamp;P1;durP1;ratioP1;P2;durP2;ratioP2
52798;SDS011;38667;42.872;74.622;2023-09-18T00:00:41;17.08;;;8.48;;
52798;SDS011;38667;42.872;74.622;2023-09-18T00:03:07;17.27;;;9.18;;
52798;SDS011;38667;42.872;74.622;2023-09-18T00:05:33;17.02;;;7.43;;
52798;SDS011;38667;42.872;74.622;2023-09-18T00:08:00;15.43;;;8.35;;
52798;SDS011;38667;42.872;74.622;2023-09-18T00:10:28;16.52;;;8.15;;
52798;SDS011;38667;42.872;74.622;2023-09-18T00:12:54;21.65;;;7.80;;
52798;SDS011;38667;42.872;74.622;2023-09-18T00:15:21;13.48;;;7.68;;
52798;SDS011;38667;42.872;74.622;2023-09-18T00:17:47;16.73;;;7.75;;
52798;SDS011;38667;42.872;74.622;2023-09-18T00:20:14;11.57;;;7.40;;
52798;SDS011;38667;42.872;74.622;2023-09-18T00:22:40;19.55;;;7.55;;
52798;SDS011;38667;42.872;74.622;2023-09-18T00:25:07;17.52;;;6.78;;
52798;SDS011;38667;42.872;74.622;2023-09-18T00:27:34;16.85;;;6.47;;
52798;SDS011;38667;42.872;74.622;2023-09-18T00:30:01;13.45;;;6.15;;
52798;SDS011;38667;42.872;74.622;2023-09-18T00:32:27;12.48;;;5.88;;
52798;SDS011;38667;42.872;74.622;2023-09-18T00:34:54;10.75;;;5.30;;
52798;SDS011;38667;42.872;74.622;2023-09-18T00:37:20;11.00;;;5.55;;
52798;SDS011;38667;42.872;74.622;2023-09-18T00:39:46;13.27;;;6.13;;
52798;SDS011;38667;42.872;74.622;2023-09-18T00:42:14;10.65;;;5.40;;
52798;SDS011;38667;42.872;74.622;2023-09-18T00:44:42;13.15;;;5.32;;
52798;SDS011;38667;42.872;74.622;2023-09-18T00:47:08;13.60;;;5.28;;
52798;SDS011;38667;42.872;74.622;2023-09-18T00:49:35;10.85;;;5.45;;
52798;SDS011;38667;42.872;74.622;2023-09-18T00:52:03;16.10;;;5.60;;
52798;SDS011;38667;42.872;74.622;2023-09-18T00:54:30;16.58;;;5.30;;
52798;SDS011;38667;42.872;74.622;2023-09-18T00:56:59;13.77;;;5.57;;
52798;SDS011;38667;42.872;74.622;2023-09-18T00:59:26;16.38;;;5.78;;
52798;SDS011;38667;42.872;74.622;2023-09-18T01:01:53;11.63;;;5.13;;
52798;SDS011;38667;42.872;74.622;2023-09-18T01:04:20;9.32;;;4.30;;
52798;SDS011;38667;42.872;74.622;2023-09-18T01:06:48;17.55;;;5.47;;
52798;SDS011;38667;42.872;74.622;2023-09-18T01:09:14;16.05;;;5.72;;
52798;SDS011;38667;42.872;74.622;2023-09-18T01:11:44;11.30;;;4.90;;
52798;SDS011;38667;42.872;74.622;2023-09-18T01:14:19;10.43;;;5.00;;
52798;SDS011;38667;42.872;74.622;2023-09-18T01:16:53;12.90;;;5.28;;
52798;SDS011;38667;42.872;74.622;2023-09-18T01:19:34;12.95;;;5.28;;
52798;SDS011;38667;42.872;74.622;2023-09-18T01:22:02;13.15;;;5.35;;
52798;SDS011;38667;42.872;74.622;2023-09-18T01:24:30;9.95;;;5.50;;
52798;SDS011;38667;42.872;74.622;2023-09-18T01:26:57;12.73;;;5.65;;
52798;SDS011;38667;42.872;74.622;2023-09-18T01:29:23;11.45;;;5.93;;
52798;SDS011;38667;42.872;74.622;2023-09-18T01:31:49;15.48;;;5.60;;
52798;SDS011;38667;42.872;74.622;2023-09-18T01:34:15;15.20;;;5.78;;
52798;SDS011;38667;42.872;74.622;2023-09-18T01:36:44;13.43;;;6.25;;
52798;SDS011;38667;42.872;74.622;2023-09-18T01:39:10;17.17;;;6.88;;
52798;SDS011;38667;42.872;74.622;2023-09-18T01:41:39;15.50;;;6.68;;
52798;SDS011;38667;42.872;74.622;2023-09-18T01:44:06;12.55;;;6.15;;
52798;SDS011;38667;42.872;74.622;2023-09-18T01:46:33;9.40;;;5.68;;
52798;SDS011;38667;42.872;74.622;2023-09-18T01:49:00;12.40;;;6.20;;
52798;SDS011;38667;42.872;74.622;2023-09-18T01:51:26;13.45;;;6.20;;
52798;SDS011;38667;42.872;74.622;2023-09-18T01:53:52;14.93;;;6.85;;
52798;SDS011;38667;42.872;74.622;2023-09-18T01:56:19;15.68;;;6.82;;
52798;SDS011;38667;42.872;74.622;2023-09-18T01:58:47;16.15;;;6.78;;
52798;SDS011;38667;42.872;74.622;2023-09-18T02:03:49;20.50;;;5.95;;
52798;SDS011;38667;42.872;74.622;2023-09-18T02:12:39;11.57;;;6.20;;
52798;SDS011;38667;42.872;74.622;2023-09-18T02:15:06;19.65;;;6.68;;
52798;SDS011;38667;42.872;74.622;2023-09-18T02:17:33;15.50;;;6.55;;
52798;SDS011;38667;42.872;74.622;2023-09-18T02:19:59;14.63;;;5.93;;
52798;SDS011;38667;42.872;74.622;2023-09-18T02:22:25;13.57;;;5.57;;
52798;SDS011;38667;42.872;74.622;2023-09-18T02:24:52;13.95;;;5.80;;
52798;SDS011;38667;42.872;74.622;2023-09-18T02:27:18;18.42;;;5.43;;
52798;SDS011;38667;42.872;74.622;2023-09-18T02:29:46;13.73;;;5.65;;
52798;SDS011;38667;42.872;74.622;2023-09-18T02:32:12;10.95;;;5.53;;
52798;SDS011;38667;42.872;74.622;2023-09-18T02:34:38;11.52;;;4.63;;
52798;SDS011;38667;42.872;74.622;2023-09-18T02:37:04;17.40;;;8.00;;
52798;SDS011;38667;42.872;74.622;2023-09-18T02:39:31;31.08;;;10.65;;
52798;SDS011;38667;42.872;74.622;2023-09-18T02:41:57;17.45;;;9.63;;
52798;SDS011;38667;42.872;74.622;2023-09-18T02:44:23;22.80;;;10.50;;
52798;SDS011;38667;42.872;74.622;2023-09-18T02:46:51;22.63;;;9.75;;
52798;SDS011;38667;42.872;74.622;2023-09-18T02:49:17;20.55;;;10.35;;
52798;SDS011;38667;42.872;74.622;2023-09-18T02:51:44;22.02;;;9.98;;
52798;SDS011;38667;42.872;74.622;2023-09-18T02:54:10;26.45;;;9.82;;
52798;SDS011;38667;42.872;74.622;2023-09-18T02:56:36;29.33;;;11.70;;
52798;SDS011;38667;42.872;74.622;2023-09-18T02:59:03;24.08;;;11.98;;
52798;SDS011;38667;42.872;74.622;2023-09-18T03:01:29;20.75;;;11.63;;
52798;SDS011;38667;42.872;74.622;2023-09-18T03:03:57;23.27;;;12.30;;
52798;SDS011;38667;42.872;74.622;2023-09-18T03:06:23;22.90;;;11.70;;
52798;SDS011;38667;42.872;74.622;2023-09-18T03:08:49;26.40;;;13.32;;
52798;SDS011;38667;42.872;74.622;2023-09-18T03:11:16;27.30;;;13.80;;
52798;SDS011;38667;42.872;74.622;2023-09-18T03:13:45;31.35;;;13.07;;
52798;SDS011;38667;42.872;74.622;2023-09-18T03:16:12;33.97;;;17.40;;
52798;SDS011;38667;42.872;74.622;2023-09-18T03:18:38;28.40;;;16.15;;
52798;SDS011;38667;42.872;74.622;2023-09-18T03:21:06;29.00;;;15.70;;
52798;SDS011;38667;42.872;74.622;2023-09-18T03:23:33;30.05;;;16.38;;
52798;SDS011;38667;42.872;74.622;2023-09-18T03:25:59;34.72;;;15.60;;
52798;SDS011;38667;42.872;74.622;2023-09-18T03:28:25;31.08;;;16.05;;
52798;SDS011;38667;42.872;74.622;2023-09-18T03:30:52;32.20;;;15.80;;
52798;SDS011;38667;42.872;74.622;2023-09-18T03:33:18;29.95;;;15.95;;
52798;SDS011;38667;42.872;74.622;2023-09-18T03:35:45;32.63;;;15.40;;
52798;SDS011;38667;42.872;74.622;2023-09-18T03:38:13;32.45;;;15.70;;
52798;SDS011;38667;42.872;74.622;2023-09-18T03:40:39;29.67;;;13.68;;
52798;SDS011;38667;42.872;74.622;2023-09-18T03:43:06;28.13;;;14.80;;
52798;SDS011;38667;42.872;74.622;2023-09-18T03:45:32;22.17;;;12.63;;
52798;SDS011;38667;42.872;74.622;2023-09-18T03:47:58;21.88;;;13.60;;
52798;SDS011;38667;42.872;74.622;2023-09-18T03:50:25;25.50;;;12.13;;
52798;SDS011;38667;42.872;74.622;2023-09-18T03:52:51;25.38;;;12.68;;
52798;SDS011;38667;42.872;74.622;2023-09-18T03:55:19;29.02;;;14.70;;
52798;SDS011;38667;42.872;74.622;2023-09-18T03:57:45;21.92;;;10.48;;
52798;SDS011;38667;42.872;74.622;2023-09-18T04:00:11;16.55;;;9.07;;
52798;SDS011;38667;42.872;74.622;2023-09-18T04:02:38;13.60;;;8.32;;
52798;SDS011;38667;42.872;74.622;2023-09-18T04:05:05;16.92;;;8.10;;
52798;SDS011;38667;42.872;74.622;2023-09-18T04:07:31;13.55;;;7.68;;
52798;SDS011;38667;42.872;74.622;2023-09-18T04:09:58;13.18;;;7.63;;
52798;SDS011;38667;42.872;74.622;2023-09-18T04:12:26;13.35;;;7.05;;
52798;SDS011;38667;42.872;74.622;2023-09-18T04:14:52;13.45;;;6.95;;
52798;SDS011;38667;42.872;74.622;2023-09-18T04:17:18;16.40;;;7.20;;
52798;SDS011;38667;42.872;74.622;2023-09-18T04:19:45;17.75;;;7.43;;
52798;SDS011;38667;42.872;74.622;2023-09-18T04:22:11;13.45;;;7.07;;
52798;SDS011;38667;42.872;74.622;2023-09-18T04:24:38;21.90;;;7.18;;
52798;SDS011;38667;42.872;74.622;2023-09-18T04:27:04;12.90;;;6.35;;
52798;SDS011;38667;42.872;74.622;2023-09-18T04:29:32;14.38;;;6.78;;
52798;SDS011;38667;42.872;74.622;2023-09-18T04:31:58;18.80;;;7.03;;
52798;SDS011;38667;42.872;74.622;2023-09-18T04:34:25;13.23;;;6.70;;
52798;SDS011;38667;42.872;74.622;2023-09-18T04:36:51;17.80;;;7.72;;
52798;SDS011;38667;42.872;74.622;2023-09-18T04:39:17;13.02;;;7.18;;
52798;SDS011;38667;42.872;74.622;2023-09-18T04:41:44;19.70;;;7.13;;
52798;SDS011;38667;42.872;74.622;2023-09-18T04:44:10;17.23;;;6.93;;
52798;SDS011;38667;42.872;74.622;2023-09-18T04:46:38;19.23;;;6.57;;
52798;SDS011;38667;42.872;74.622;2023-09-18T04:49:04;13.95;;;6.38;;
52798;SDS011;38667;42.872;74.622;2023-09-18T04:51:31;17.02;;;6.57;;
52798;SDS011;38667;42.872;74.622;2023-09-18T04:53:57;13.70;;;6.95;;
52798;SDS011;38667;42.872;74.622;2023-09-18T04:56:23;17.88;;;7.15;;
52798;SDS011;38667;42.872;74.622;2023-09-18T04:58:50;16.27;;;5.95;;
52798;SDS011;38667;42.872;74.622;2023-09-18T05:01:16;22.90;;;8.07;;
52798;SDS011;38667;42.872;74.622;2023-09-18T05:03:44;15.20;;;6.72;;
52798;SDS011;38667;42.872;74.622;2023-09-18T05:06:10;15.57;;;7.18;;
52798;SDS011;38667;42.872;74.622;2023-09-18T05:08:36;15.98;;;7.53;;
52798;SDS011;38667;42.872;74.622;2023-09-18T05:11:03;23.08;;;7.80;;
52798;SDS011;38667;42.872;74.622;2023-09-18T05:22:40;35.47;;;14.55;;
52798;SDS011;38667;42.872;74.622;2023-09-18T05:25:07;41.33;;;17.15;;
52798;SDS011;38667;42.872;74.622;2023-09-18T05:27:33;40.63;;;15.43;;
52798;SDS011;38667;42.872;74.622;2023-09-18T05:30:00;39.78;;;15.90;;
52798;SDS011;38667;42.872;74.622;2023-09-18T05:32:26;45.40;;;15.98;;
52798;SDS011;38667;42.872;74.622;2023-09-18T05:34:52;31.30;;;12.77;;
52798;SDS011;38667;42.872;74.622;2023-09-18T05:37:19;42.92;;;15.20;;
52798;SDS011;38667;42.872;74.622;2023-09-18T05:39:46;34.63;;;14.73;;
52798;SDS011;38667;42.872;74.622;2023-09-18T05:42:13;34.22;;;13.57;;
52798;SDS011;38667;42.872;74.622;2023-09-18T05:44:39;37.47;;;13.02;;
52798;SDS011;38667;42.872;74.622;2023-09-18T05:47:05;32.10;;;12.25;;
52798;SDS011;38667;42.872;74.622;2023-09-18T05:49:32;26.58;;;9.82;;
52798;SDS011;38667;42.872;74.622;2023-09-18T05:51:58;30.60;;;11.25;;
52798;SDS011;38667;42.872;74.622;2023-09-18T05:54:24;30.02;;;10.68;;
52798;SDS011;38667;42.872;74.622;2023-09-18T05:56:52;31.10;;;11.40;;
52798;SDS011;38667;42.872;74.622;2023-09-18T05:59:18;26.17;;;10.27;;
52798;SDS011;38667;42.872;74.622;2023-09-18T06:01:45;28.05;;;10.20;;
52798;SDS011;38667;42.872;74.622;2023-09-18T06:04:11;31.95;;;9.73;;
52798;SDS011;38667;42.872;74.622;2023-09-18T06:06:37;23.60;;;9.32;;
52798;SDS011;38667;42.872;74.622;2023-09-18T06:09:03;27.13;;;9.70;;
52798;SDS011;38667;42.872;74.622;2023-09-18T06:11:30;22.20;;;9.50;;
52798;SDS011;38667;42.872;74.622;2023-09-18T06:13:58;23.33;;;9.60;;
52798;SDS011;38667;42.872;74.622;2023-09-18T06:16:24;24.40;;;9.27;;
52798;SDS011;38667;42.872;74.622;2023-09-18T06:18:51;28.17;;;8.85;;
52798;SDS011;38667;42.872;74.622;2023-09-18T06:21:17;25.52;;;9.43;;
52798;SDS011;38667;42.872;74.622;2023-09-18T06:23:43;27.10;;;9.70;;
52798;SDS011;38667;42.872;74.622;2023-09-18T06:26:09;25.00;;;8.43;;
52798;SDS011;38667;42.872;74.622;2023-09-18T06:28:36;21.15;;;7.88;;
52798;SDS011;38667;42.872;74.622;2023-09-18T06:31:04;14.20;;;7.43;;
52798;SDS011;38667;42.872;74.622;2023-09-18T06:33:30;18.58;;;7.50;;
52798;SDS011;38667;42.872;74.622;2023-09-18T06:35:56;27.58;;;8.88;;
52798;SDS011;38667;42.872;74.622;2023-09-18T06:38:23;19.85;;;8.32;;
52798;SDS011;38667;42.872;74.622;2023-09-18T06:40:49;22.33;;;7.38;;
52798;SDS011;38667;42.872;74.622;2023-09-18T06:43:15;26.27;;;7.75;;
52798;SDS011;38667;42.872;74.622;2023-09-18T06:45:41;24.27;;;8.45;;
52798;SDS011;38667;42.872;74.622;2023-09-18T06:48:09;20.73;;;8.48;;
52798;SDS011;38667;42.872;74.622;2023-09-18T06:50:36;18.67;;;8.20;;
52798;SDS011;38667;42.872;74.622;2023-09-18T06:53:02;23.90;;;7.22;;
52798;SDS011;38667;42.872;74.622;2023-09-18T06:55:29;19.58;;;6.85;;
52798;SDS011;38667;42.872;74.622;2023-09-18T06:57:55;20.90;;;7.43;;
52798;SDS011;38667;42.872;74.622;2023-09-18T07:00:21;16.67;;;7.22;;
52798;SDS011;38667;42.872;74.622;2023-09-18T07:02:48;22.25;;;7.65;;
52798;SDS011;38667;42.872;74.622;2023-09-18T07:05:16;20.10;;;8.05;;
52798;SDS011;38667;42.872;74.622;2023-09-18T07:07:42;17.52;;;7.70;;
52798;SDS011;38667;42.872;74.622;2023-09-18T07:10:09;20.15;;;7.85;;
52798;SDS011;38667;42.872;74.622;2023-09-18T07:12:35;15.65;;;7.38;;
52798;SDS011;38667;42.872;74.622;2023-09-18T07:15:01;22.65;;;7.93;;
52798;SDS011;38667;42.872;74.622;2023-09-18T07:17:28;22.17;;;8.20;;
52798;SDS011;38667;42.872;74.622;2023-09-18T07:19:54;19.13;;;7.50;;
52798;SDS011;38667;42.872;74.622;2023-09-18T07:22:22;22.55;;;8.07;;
52798;SDS011;38667;42.872;74.622;2023-09-18T07:24:48;19.05;;;7.47;;
52798;SDS011;38667;42.872;74.622;2023-09-18T07:27:15;16.25;;;7.30;;
52798;SDS011;38667;42.872;74.622;2023-09-18T07:29:41;16.70;;;6.90;;
52798;SDS011;38667;42.872;74.622;2023-09-18T07:32:07;18.85;;;7.60;;
52798;SDS011;38667;42.872;74.622;2023-09-18T07:34:33;16.08;;;8.55;;
52798;SDS011;38667;42.872;74.622;2023-09-18T07:37:00;18.98;;;7.30;;
52798;SDS011;38667;42.872;74.622;2023-09-18T07:39:28;20.63;;;7.35;;
52798;SDS011;38667;42.872;74.622;2023-09-18T07:41:54;17.48;;;7.53;;
52798;SDS011;38667;42.872;74.622;2023-09-18T07:44:21;21.85;;;6.43;;
52798;SDS011;38667;42.872;74.622;2023-09-18T07:46:47;14.18;;;6.75;;
52798;SDS011;38667;42.872;74.622;2023-09-18T07:49:14;15.20;;;6.85;;
52798;SDS011;38667;42.872;74.622;2023-09-18T07:51:40;18.70;;;6.28;;
52798;SDS011;38667;42.872;74.622;2023-09-18T07:54:06;15.63;;;6.50;;
52798;SDS011;38667;42.872;74.622;2023-09-18T07:56:34;17.70;;;6.72;;
52798;SDS011;38667;42.872;74.622;2023-09-18T07:59:01;15.10;;;6.00;;
52798;SDS011;38667;42.872;74.622;2023-09-18T08:01:27;14.02;;;5.53;;
52798;SDS011;38667;42.872;74.622;2023-09-18T08:03:53;14.50;;;6.75;;
52798;SDS011;38667;42.872;74.622;2023-09-18T08:06:19;17.83;;;6.68;;
52798;SDS011;38667;42.872;74.622;2023-09-18T08:08:46;16.13;;;6.50;;
52798;SDS011;38667;42.872;74.622;2023-09-18T08:11:12;19.33;;;6.57;;
52798;SDS011;38667;42.872;74.622;2023-09-18T08:13:40;10.50;;;6.20;;
52798;SDS011;38667;42.872;74.622;2023-09-18T08:16:06;13.93;;;6.13;;
52798;SDS011;38667;42.872;74.622;2023-09-18T08:18:33;12.15;;;6.00;;
52798;SDS011;38667;42.872;74.622;2023-09-18T08:20:59;16.55;;;5.65;;
52798;SDS011;38667;42.872;74.622;2023-09-18T08:23:26;16.70;;;5.90;;
52798;SDS011;38667;42.872;74.622;2023-09-18T08:25:52;15.48;;;7.22;;
52798;SDS011;38667;42.872;74.622;2023-09-18T08:28:18;15.63;;;6.57;;
52798;SDS011;38667;42.872;74.622;2023-09-18T08:30:46;15.40;;;6.88;;
52798;SDS011;38667;42.872;74.622;2023-09-18T08:33:12;14.48;;;5.57;;
52798;SDS011;38667;42.872;74.622;2023-09-18T08:35:39;11.18;;;5.53;;
52798;SDS011;38667;42.872;74.622;2023-09-18T08:38:05;12.48;;;5.35;;
52798;SDS011;38667;42.872;74.622;2023-09-18T08:40:32;13.10;;;5.93;;
52798;SDS011;38667;42.872;74.622;2023-09-18T08:42:59;13.10;;;5.40;;
52798;SDS011;38667;42.872;74.622;2023-09-18T08:45:27;8.63;;;5.10;;
52798;SDS011;38667;42.872;74.622;2023-09-18T08:48:01;9.00;;;5.05;;
52798;SDS011;38667;42.872;74.622;2023-09-18T08:50:29;9.70;;;5.90;;
52798;SDS011;38667;42.872;74.622;2023-09-18T08:52:56;21.63;;;6.38;;
52798;SDS011;38667;42.872;74.622;2023-09-18T08:55:23;12.55;;;5.97;;
52798;SDS011;38667;42.872;74.622;2023-09-18T08:57:50;14.70;;;6.15;;
52798;SDS011;38667;42.872;74.622;2023-09-18T09:00:17;14.30;;;6.88;;
52798;SDS011;38667;42.872;74.622;2023-09-18T09:02:44;10.43;;;5.80;;
52798;SDS011;38667;42.872;74.622;2023-09-18T09:05:12;18.58;;;5.95;;
52798;SDS011;38667;42.872;74.622;2023-09-18T09:07:38;12.63;;;5.97;;
52798;SDS011;38667;42.872;74.622;2023-09-18T09:10:05;11.55;;;5.35;;
52798;SDS011;38667;42.872;74.622;2023-09-18T09:12:51;8.85;;;5.18;;
52798;SDS011;38667;42.872;74.622;2023-09-18T09:15:19;9.48;;;5.70;;
52798;SDS011;38667;42.872;74.622;2023-09-18T09:17:46;12.90;;;5.78;;
52798;SDS011;38667;42.872;74.622;2023-09-18T09:20:14;10.77;;;5.95;;
52798;SDS011;38667;42.872;74.622;2023-09-18T09:22:41;13.93;;;6.18;;
52798;SDS011;38667;42.872;74.622;2023-09-18T09:25:23;20.73;;;6.38;;
52798;SDS011;38667;42.872;74.622;2023-09-18T09:27:51;11.10;;;5.45;;
52798;SDS011;38667;42.872;74.622;2023-09-18T09:30:21;8.15;;;4.88;;
52798;SDS011;38667;42.872;74.622;2023-09-18T09:32:48;12.52;;;5.20;;
52798;SDS011;38667;42.872;74.622;2023-09-18T09:35:20;11.68;;;5.40;;
52798;SDS011;38667;42.872;74.622;2023-09-18T09:37:47;10.80;;;5.45;;
52798;SDS011;38667;42.872;74.622;2023-09-18T09:40:15;10.27;;;5.13;;
52798;SDS011;38667;42.872;74.622;2023-09-18T09:42:41;11.05;;;5.05;;
52798;SDS011;38667;42.872;74.622;2023-09-18T09:45:11;13.23;;;5.85;;
52798;SDS011;38667;42.872;74.622;2023-09-18T09:47:39;15.10;;;6.30;;
52798;SDS011;38667;42.872;74.622;2023-09-18T09:50:06;12.73;;;6.47;;
52798;SDS011;38667;42.872;74.622;2023-09-18T09:52:35;11.98;;;5.53;;
52798;SDS011;38667;42.872;74.622;2023-09-18T09:55:01;12.95;;;6.10;;
52798;SDS011;38667;42.872;74.622;2023-09-18T09:57:28;12.15;;;5.65;;
52798;SDS011;38667;42.872;74.622;2023-09-18T09:59:55;13.80;;;5.63;;
52798;SDS011;38667;42.872;74.622;2023-09-18T10:02:28;14.10;;;5.75;;
52798;SDS011;38667;42.872;74.622;2023-09-18T10:04:57;13.00;;;6.35;;
52798;SDS011;38667;42.872;74.622;2023-09-18T10:07:23;14.50;;;6.43;;
52798;SDS011;38667;42.872;74.622;2023-09-18T10:09:51;10.45;;;5.55;;
52798;SDS011;38667;42.872;74.622;2023-09-18T10:12:18;9.75;;;5.90;;
52798;SDS011;38667;42.872;74.622;2023-09-18T10:14:46;18.25;;;6.18;;
52798;SDS011;38667;42.872;74.622;2023-09-18T10:17:15;13.93;;;5.90;;
52798;SDS011;38667;42.872;74.622;2023-09-18T10:19:45;12.10;;;6.20;;
52798;SDS011;38667;42.872;74.622;2023-09-18T10:22:17;9.80;;;5.32;;
52798;SDS011;38667;42.872;74.622;2023-09-18T10:24:52;11.95;;;5.63;;
52798;SDS011;38667;42.872;74.622;2023-09-18T10:27:24;14.77;;;5.28;;
52798;SDS011;38667;42.872;74.622;2023-09-18T10:29:50;11.40;;;5.10;;
52798;SDS011;38667;42.872;74.622;2023-09-18T10:32:19;12.13;;;5.22;;
52798;SDS011;38667;42.872;74.622;2023-09-18T10:34:46;9.80;;;5.03;;
52798;SDS011;38667;42.872;74.622;2023-09-18T10:37:14;13.27;;;5.55;;
52798;SDS011;38667;42.872;74.622;2023-09-18T10:39:41;11.65;;;5.65;;
52798;SDS011;38667;42.872;74.622;2023-09-18T10:42:10;9.00;;;5.30;;
52798;SDS011;38667;42.872;74.622;2023-09-18T10:44:39;14.45;;;5.57;;
52798;SDS011;38667;42.872;74.622;2023-09-18T10:47:06;11.85;;;5.68;;
52798;SDS011;38667;42.872;74.622;2023-09-18T10:49:35;9.77;;;5.50;;
52798;SDS011;38667;42.872;74.622;2023-09-18T10:52:02;8.18;;;4.80;;
52798;SDS011;38667;42.872;74.622;2023-09-18T10:54:29;10.05;;;5.13;;
52798;SDS011;38667;42.872;74.622;2023-09-18T10:56:56;10.95;;;4.65;;
52798;SDS011;38667;42.872;74.622;2023-09-18T10:59:24;10.57;;;4.55;;
52798;SDS011;38667;42.872;74.622;2023-09-18T11:01:52;17.13;;;5.85;;
52798;SDS011;38667;42.872;74.622;2023-09-18T11:04:19;15.95;;;6.65;;
52798;SDS011;38667;42.872;74.622;2023-09-18T11:07:01;10.00;;;5.38;;
52798;SDS011;38667;42.872;74.622;2023-09-18T11:09:28;10.18;;;5.22;;
52798;SDS011;38667;42.872;74.622;2023-09-18T11:12:02;15.35;;;5.90;;
52798;SDS011;38667;42.872;74.622;2023-09-18T11:14:42;6.93;;;5.30;;
52798;SDS011;38667;42.872;74.622;2023-09-18T11:20:03;12.40;;;4.75;;
52798;SDS011;38667;42.872;74.622;2023-09-18T11:22:34;15.73;;;5.97;;
52798;SDS011;38667;42.872;74.622;2023-09-18T11:27:54;8.18;;;5.10;;
52798;SDS011;38667;42.872;74.622;2023-09-18T11:30:22;10.15;;;4.75;;
52798;SDS011;38667;42.872;74.622;2023-09-18T11:32:49;16.58;;;4.18;;
52798;SDS011;38667;42.872;74.622;2023-09-18T11:35:15;17.80;;;4.68;;
52798;SDS011;38667;42.872;74.622;2023-09-18T11:37:43;11.25;;;4.20;;
52798;SDS011;38667;42.872;74.622;2023-09-18T11:45:50;12.65;;;5.00;;
52798;SDS011;38667;42.872;74.622;2023-09-18T11:48:18;11.52;;;4.85;;
52798;SDS011;38667;42.872;74.622;2023-09-18T11:50:44;16.58;;;4.10;;
52798;SDS011;38667;42.872;74.622;2023-09-18T11:53:12;8.48;;;3.72;;
52798;SDS011;38667;42.872;74.622;2023-09-18T11:55:39;13.75;;;4.35;;
52798;SDS011;38667;42.872;74.622;2023-09-18T11:58:05;8.43;;;4.10;;
52798;SDS011;38667;42.872;74.622;2023-09-18T12:00:32;8.98;;;4.40;;
52798;SDS011;38667;42.872;74.622;2023-09-18T12:02:59;9.70;;;4.28;;
52798;SDS011;38667;42.872;74.622;2023-09-18T12:05:39;28.67;;;19.30;;
52798;SDS011;38667;42.872;74.622;2023-09-18T12:08:07;9.68;;;4.70;;
52798;SDS011;38667;42.872;74.622;2023-09-18T12:10:33;7.95;;;4.05;;
52798;SDS011;38667;42.872;74.622;2023-09-18T12:13:00;9.77;;;4.38;;
52798;SDS011;38667;42.872;74.622;2023-09-18T12:15:30;13.63;;;4.60;;
52798;SDS011;38667;42.872;74.622;2023-09-18T12:17:57;11.38;;;4.85;;
52798;SDS011;38667;42.872;74.622;2023-09-18T12:20:32;12.75;;;4.38;;
52798;SDS011;38667;42.872;74.622;2023-09-18T12:22:59;14.77;;;5.85;;
52798;SDS011;38667;42.872;74.622;2023-09-18T12:25:25;10.50;;;5.20;;
52798;SDS011;38667;42.872;74.622;2023-09-18T12:27:52;12.73;;;5.20;;
52798;SDS011;38667;42.872;74.622;2023-09-18T12:30:18;11.18;;;4.90;;
52798;SDS011;38667;42.872;74.622;2023-09-18T12:32:46;16.42;;;5.80;;
52798;SDS011;38667;42.872;74.622;2023-09-18T12:35:14;15.82;;;5.30;;
52798;SDS011;38667;42.872;74.622;2023-09-18T12:37:41;19.02;;;5.95;;
52798;SDS011;38667;42.872;74.622;2023-09-18T12:40:07;15.93;;;5.25;;
52798;SDS011;38667;42.872;74.622;2023-09-18T12:42:47;15.10;;;5.32;;
52798;SDS011;38667;42.872;74.622;2023-09-18T12:45:13;12.68;;;5.40;;
52798;SDS011;38667;42.872;74.622;2023-09-18T12:47:40;13.75;;;5.15;;
52798;SDS011;38667;42.872;74.622;2023-09-18T12:50:07;17.83;;;5.45;;
52798;SDS011;38667;42.872;74.622;2023-09-18T12:52:35;18.65;;;5.10;;
52798;SDS011;38667;42.872;74.622;2023-09-18T12:55:02;15.00;;;4.95;;
52798;SDS011;38667;42.872;74.622;2023-09-18T12:57:28;15.20;;;4.85;;
52798;SDS011;38667;42.872;74.622;2023-09-18T12:59:55;14.05;;;5.88;;
52798;SDS011;38667;42.872;74.622;2023-09-18T13:02:21;16.48;;;5.35;;
52798;SDS011;38667;42.872;74.622;2023-09-18T13:04:51;18.58;;;5.32;;
52798;SDS011;38667;42.872;74.622;2023-09-18T13:07:18;16.65;;;5.13;;
52798;SDS011;38667;42.872;74.622;2023-09-18T13:09:59;15.65;;;5.47;;
52798;SDS011;38667;42.872;74.622;2023-09-18T13:12:38;19.95;;;5.20;;
52798;SDS011;38667;42.872;74.622;2023-09-18T13:15:05;18.27;;;5.68;;
52798;SDS011;38667;42.872;74.622;2023-09-18T13:17:38;13.75;;;6.07;;
52798;SDS011;38667;42.872;74.622;2023-09-18T13:20:07;13.63;;;5.50;;
52798;SDS011;38667;42.872;74.622;2023-09-18T13:22:38;21.88;;;7.25;;
52798;SDS011;38667;42.872;74.622;2023-09-18T13:25:07;19.27;;;7.07;;
52798;SDS011;38667;42.872;74.622;2023-09-18T13:27:34;16.27;;;6.55;;
52798;SDS011;38667;42.872;74.622;2023-09-18T13:30:00;17.55;;;6.68;;
52798;SDS011;38667;42.872;74.622;2023-09-18T13:32:27;14.10;;;7.20;;
52798;SDS011;38667;42.872;74.622;2023-09-18T13:34:53;18.00;;;6.82;;
52798;SDS011;38667;42.872;74.622;2023-09-18T13:37:19;17.92;;;6.43;;
52798;SDS011;38667;42.872;74.622;2023-09-18T13:39:46;20.42;;;7.03;;
52798;SDS011;38667;42.872;74.622;2023-09-18T13:42:13;18.52;;;6.40;;
52798;SDS011;38667;42.872;74.622;2023-09-18T13:44:40;15.95;;;6.97;;
52798;SDS011;38667;42.872;74.622;2023-09-18T13:47:06;21.20;;;7.07;;
52798;SDS011;38667;42.872;74.622;2023-09-18T13:49:32;19.98;;;7.63;;
52798;SDS011;38667;42.872;74.622;2023-09-18T13:51:59;15.15;;;7.40;;
52798;SDS011;38667;42.872;74.622;2023-09-18T13:54:25;24.05;;;9.98;;
52798;SDS011;38667;42.872;74.622;2023-09-18T13:56:51;30.30;;;9.73;;
52798;SDS011;38667;42.872;74.622;2023-09-18T13:59:19;31.70;;;10.13;;
52798;SDS011;38667;42.872;74.622;2023-09-18T14:01:46;32.20;;;10.40;;
52798;SDS011;38667;42.872;74.622;2023-09-18T14:04:12;39.40;;;12.35;;
52798;SDS011;38667;42.872;74.622;2023-09-18T14:06:38;32.17;;;15.90;;
52798;SDS011;38667;42.872;74.622;2023-09-18T14:09:05;42.05;;;19.20;;
52798;SDS011;38667;42.872;74.622;2023-09-18T14:11:31;35.17;;;19.10;;
52798;SDS011;38667;42.872;74.622;2023-09-18T14:13:57;43.30;;;21.23;;
52798;SDS011;38667;42.872;74.622;2023-09-18T14:16:25;39.00;;;20.45;;
52798;SDS011;38667;42.872;74.622;2023-09-18T14:18:51;43.05;;;21.20;;
52798;SDS011;38667;42.872;74.622;2023-09-18T14:21:18;41.97;;;20.25;;
52798;SDS011;38667;42.872;74.622;2023-09-18T14:23:44;47.10;;;22.85;;
52798;SDS011;38667;42.872;74.622;2023-09-18T14:26:11;38.10;;;22.60;;
52798;SDS011;38667;42.872;74.622;2023-09-18T14:28:37;47.25;;;23.13;;
52798;SDS011;38667;42.872;74.622;2023-09-18T14:31:03;36.20;;;20.10;;
52798;SDS011;38667;42.872;74.622;2023-09-18T14:33:31;27.48;;;17.95;;
52798;SDS011;38667;42.872;74.622;2023-09-18T14:35:57;39.53;;;16.58;;
52798;SDS011;38667;42.872;74.622;2023-09-18T14:38:24;37.28;;;18.67;;
52798;SDS011;38667;42.872;74.622;2023-09-18T14:40:50;32.55;;;17.77;;
52798;SDS011;38667;42.872;74.622;2023-09-18T14:43:16;32.45;;;16.20;;
52798;SDS011;38667;42.872;74.622;2023-09-18T14:45:43;27.20;;;15.20;;
52798;SDS011;38667;42.872;74.622;2023-09-18T14:48:09;25.35;;;13.00;;
52798;SDS011;38667;42.872;74.622;2023-09-18T14:50:37;29.50;;;12.75;;